Startpagina
METAR-TAF:

METAR-TAF

Vliegvelden :

Spaa

Tomaszów Mazowiecki, Polen

breedte: 51-35-04N, lengte: 020-05-52E, hoogte: 174 m

METAR: ontbreekt

Tijdstip: 18:22 (16:22 UTC)

Verwachting

Dit bericht is 2 uur en het 22 minuten geleden gemaakt, om 14:00 UTC
Verwachting geldig van 06 om 15 UTC tot 06 om 24 UTC
Wind 12 kt uit het westzuidwesten
Zicht 10 km of meer
geen wolken onder 1500 m en geen cumulonimbus
Kans 30% :
Tijdelijke
van 06 om 15 UTC tot 06 om 18 UTC
Wind 20 kt uit het westzuidwesten met uitschieters tot 30 kt
Zicht: 6000 m
Gebroken wolken op 2500 ft, Cumulonimbus.
lichte regenbuien
Wijzigt naar
van 06 om 16 UTC tot 06 om 18 UTC
Wind 6 kt uit het zuiden
Wijzigt naar
van 06 om 22 UTC tot 06 om 24 UTC
Wind 3 kt uit variabele richting
Zicht: 7000 m
Gebroken wolken op 1500 ft
lichte regen

TAF: EPTM 061400Z 0615/0624 25012KT CAVOK PROB30 TEMPO 0615/0618 24020G30KT 6000 -SHRA BKN025CB BECMG 0616/0618 18006KT BECMG 0622/0624 VRB03KT 7000 -RA BKN015

Waarnemingen en weersverwachtingen van meer dan 4000 vliegvelden (METAR en TAF).

De beschikbare stations zijn de gele en rode punten op de kaart.

Ga met uw muis naar het station om de naam te zien.

Klik dan om waarnemingen en weersverwachtingen te zien.

kaart wijzigen: klik op de groene knoppen met een zwart kruis om in te zoomen, op de groene knop met een streepje om uit te zoomen of op de groene pijlen voor aangrenzende kaarten.


METAR-TAF: